Point Mugu NAWC, California
Current Conditions -  °F | °C
As of 3:56 AM on Monday 26 Jan 2015 (Local Time) from KNTD Reporting Station
Broken Clouds Broken Clouds  
Wind Chill: 59°   Ceiling: 12000
Heat Index: 59°   Visibility: 10mi
Dew Point: 43°   Wind: 5mph
Humidity: 55%   Direction: 10°N
Pressure: 29.98"   Gusts: NA
Location:  34.1°N, 119.06°W
Report Text: KNTD 261156Z AUTO 01004KT 10SM BKN120 15/06 A2998 RMK AO2 SLP152 T01500061 10189 20139 58013 $
Loading
Personal Weather Stations






























Interactive Weather Map New forecast layout! Learn more

10-Day Weather Forecast

Advertisements
Track Severe Weather on mobile